Latest Weather Observations for Green Cape

IDN60801

Issued at 9:02 pm EDT Tuesday 6 December 2016 (issued every 30 minutes, with the page automatically refreshed every 10 minutes)

About weather observations | Map of weather stations | Latest weather observations for NSW | Other Formats
Station Details ID: 069137 Name: GREEN CAPE AWS Lat: -37.26 Lon: 150.05 Height: 19.4 m
Data from the previous 72 hours. | See also: Recent months at Green Cape
Date/Time
EDT
Temp
°C
App
Temp
°C
Dew
Point
°C
Rel
Hum
%
Delta-T
°C
Wind Press
QNH
hPa
Press
MSL
hPa
Rain since
9am
mm
Dir  Spd
km/h
Gust
km/h
Spd
kts
Gust
kts
06/09:00pm 15.8 11.3 12.7 82 1.7 SSW 28 35 15 19 1013.5 1013.5 0.0
06/08:30pm 15.9 10.2 13.0 83 1.6 SSW 35 39 19 21 1013.0 1013.0 0.0
06/08:00pm 16.0 11.3 13.1 83 1.6 SSW 30 35 16 19 1012.7 1012.7 0.0
06/07:30pm 16.1 11.1 13.4 84 1.5 SSW 32 35 17 19 1012.6 1012.5 0.0
06/07:00pm 16.2 12.0 13.5 84 1.5 SSW 28 33 15 18 1012.3 1012.2 0.0
06/06:30pm 16.1 11.0 13.6 85 1.4 SSW 33 37 18 20 1012.1 1012.0 0.0
06/06:00pm 16.4 10.3 14.1 86 1.3 SSW 39 44 21 24 1011.6 1011.5 0.0
06/05:30pm 16.6 12.2 14.2 86 1.4 SSW 30 37 16 20 1011.0 1010.9 0.0
06/05:00pm 16.4 11.7 14.2 87 1.3 SSW 32 35 17 19 1011.3 1011.2 0.0
06/04:30pm 16.4 11.5 14.4 88 1.1 SSW 33 39 18 21 1010.9 1010.8 0.0
06/04:00pm 16.5 11.8 14.9 90 0.9 SSW 33 37 18 20 1011.3 1011.2 0.0
06/03:30pm 16.4 11.9 14.8 90 0.9 S 32 37 17 20 1010.8 1010.7 0.0
06/03:00pm 16.7 11.2 14.7 88 1.2 SSW 37 43 20 23 1011.1 1011.0 0.0
06/02:30pm 17.4 12.4 15.0 86 1.4 S 35 39 19 21 1010.9 1010.8 0.0
06/02:00pm 17.2 12.6 14.7 85 1.4 S 32 35 17 19 1010.7 1010.6 0.0
06/01:30pm 17.2 12.4 14.7 85 1.4 S 33 37 18 20 1010.9 1010.8 0.0
06/01:00pm 17.9 14.5 14.8 82 1.8 S 26 32 14 17 1011.2 1011.1 0.0
06/12:30pm 18.2 16.7 15.3 83 1.7 S 17 20 9 11 1011.4 1011.3 0.0
06/12:00pm 18.1 17.3 15.2 83 1.7 S 13 17 7 9 1011.3 1011.2 0.0
06/11:30am 18.1 16.4 14.6 80 2.0 SSW 17 20 9 11 1012.2 1012.1 0.0
06/11:00am 18.2 16.4 14.5 79 2.1 SSW 17 20 9 11 1012.2 1012.1 0.0
06/10:30am 18.1 17.2 14.8 81 1.9 SSW 13 15 7 8 1012.0 1011.9 0.0
06/10:00am 17.6 17.5 14.9 84 1.6 SW 9 9 5 5 1012.0 1011.9 0.0
06/09:30am 17.4 17.7 14.9 85 1.4 WSW 7 9 4 5 1012.3 1012.2 0.0
06/09:00am 17.2 17.7 15.0 87 1.3 W 6 7 3 4 1012.0 1011.9 0.8
06/08:30am 16.7 18.2 14.7 88 1.2 CALM 0 0 0 0 1011.5 1011.4 0.8
06/08:00am 16.3 16.3 14.3 88 1.1 W 7 9 4 5 1012.0 1011.9 0.8
06/07:30am 16.3 17.7 14.5 89 1.0 CALM 0 2 0 1 1011.6 1011.5 0.8
06/07:00am 16.0 16.1 14.0 88 1.1 WNW 6 7 3 4 1011.5 1011.4 0.8
06/06:30am 16.1 16.0 13.8 86 1.3 W 7 9 4 5 1011.8 1011.7 0.8
06/06:00am 16.2 16.0 13.7 85 1.4 W 7 7 4 4 1011.4 1011.3 0.6
06/05:30am 16.0 16.3 13.5 85 1.4 WNW 4 6 2 3 1011.2 1011.1 0.6
06/05:00am 15.9 15.8 13.4 85 1.4 WNW 6 6 3 3 1011.2 1011.1 0.6
06/04:30am 15.8 16.0 13.1 84 1.5 WNW 4 6 2 3 1011.2 1011.1 0.6
06/04:00am 16.3 16.6 13.4 83 1.6 W 4 6 2 3 1011.8 1011.7 0.6
06/03:30am 16.4 16.2 13.1 81 1.8 SSW 6 9 3 5 1012.4 1012.3 0.6
06/03:00am 16.4 16.9 12.9 80 1.9 NNE 2 6 1 3 1012.5 1012.4 0.6
06/02:30am 16.3 17.2 12.8 80 1.9 CALM 0 0 0 0 1013.0 1013.0 0.6
06/02:00am 16.3 17.1 12.7 79 2.0 CALM 0 2 0 1 1013.1 1013.1 0.6
06/01:30am 16.4 16.1 12.8 79 2.0 SW 6 9 3 5 1013.3 1013.3 0.6
06/01:00am 16.5 15.7 12.8 79 2.1 S 9 15 5 8 1013.2 1013.2 0.6
06/12:30am 16.8 14.2 13.3 80 2.0 SSW 19 24 10 13 1014.1 1014.1 0.6
06/12:00am 16.6 15.9 13.3 81 1.8 SSW 9 13 5 7 1014.4 1014.4 0.6
 
Date/Time
EDT
Temp
°C
App
Temp
°C
Dew
Point
°C
Rel
Hum
%
Delta-T
°C
Wind Press
QNH
hPa
Press
MSL
hPa
Rain since
9am
mm
Dir  Spd
km/h
Gust
km/h
Spd
kts
Gust
kts
05/11:30pm 16.4 16.2 13.1 81 1.8 SSW 6 9 3 5 1014.2 1014.2 0.6
05/11:00pm 16.5 15.1 13.4 82 1.7 SSW 13 17 7 9 1014.2 1014.2 0.6
05/10:30pm 16.4 15.8 13.5 83 1.6 SSW 9 13 5 7 1014.1 1014.1 0.6
05/10:00pm 16.3 14.9 13.4 83 1.6 SSW 13 17 7 9 1014.1 1014.1 0.6
05/09:30pm 16.4 14.0 13.7 84 1.5 SSW 19 22 10 12 1014.2 1014.2 0.6
05/09:00pm 16.5 13.2 14.0 85 1.4 SSW 24 28 13 15 1013.1 1013.1 0.6
05/08:30pm 16.4 12.0 14.1 86 1.3 SSW 30 33 16 18 1013.3 1013.3 0.6
05/08:00pm 16.4 10.8 14.4 88 1.1 SSW 37 43 20 23 1013.1 1013.1 0.6
05/07:30pm 15.8 11.5 14.3 91 0.9 SSW 30 33 16 18 1013.0 1013.0 0.6
05/07:00pm 15.9 12.8 14.4 91 0.9 SSW 24 28 13 15 1012.9 1012.9 0.6
05/06:30pm 15.9 9.4 14.1 89 1.0 SSW 41 50 22 27 1012.2 1012.1 0.4
05/06:00pm 16.3 9.5 14.3 88 1.1 S 43 50 23 27 1010.9 1010.8 0.2
05/05:30pm 17.3 9.5 14.2 82 1.8 SSW 48 54 26 29 1011.2 1011.1 0.2
05/05:00pm 17.8 10.7 14.9 83 1.7 S 46 52 25 28 1010.0 1009.9 0.2
05/04:30pm 18.1 10.3 15.2 83 1.7 S 50 57 27 31 1009.7 1009.6 0.2
05/04:00pm 18.7 10.7 15.6 82 1.8 S 52 57 28 31 1009.6 1009.5 0.2
05/03:30pm 19.3 11.0 15.8 80 2.1 S 54 63 29 34 1009.3 1009.2 0.2
05/03:00pm 19.2 11.3 15.9 81 2.0 S 52 57 28 31 1009.2 1009.1 0.2
05/02:30pm 19.9 12.2 16.5 81 2.0 S 52 57 28 31 1008.8 1008.7 0.2
05/02:00pm 19.9 12.2 15.5 76 2.6 S 50 57 27 31 1008.5 1008.4 0.2
05/01:30pm 20.7 14.5 16.3 76 2.7 S 44 50 24 27 1008.6 1008.5 0.2
05/01:00pm 20.3 13.6 16.1 77 2.5 S 46 52 25 28 1008.4 1008.3 0.2
05/12:30pm 20.7 14.7 16.9 79 2.3 S 44 54 24 29 1008.4 1008.3 0.2
05/12:00pm 21.7 18.2 20.3 92 0.9 S 39 52 21 28 1008.2 1008.1 0.2
05/11:50am 22.5 23.5 21.7 95 0.5 ENE 19 43 10 23 1008.6 1008.5 0.2
05/11:30am 22.8 24.1 22.3 97 0.3 N 19 20 10 11 1007.1 1007.0 0.2
05/11:00am 23.3 25.3 23.0 98 0.2 N 17 19 9 10 1007.1 1007.0 0.2
05/10:30am 21.7 23.7 21.5 99 0.1 N 13 19 7 10 1007.3 1007.2 0.2
05/10:00am 22.2 24.5 22.0 99 0.1 NNE 13 15 7 8 1007.5 1007.4 0.2
05/09:30am 21.3 21.0 21.1 99 0.1 N 24 26 13 14 1007.3 1007.2 0.0
05/09:00am 20.2 19.4 20.0 99 0.1 N 24 26 13 14 1007.4 1007.3 10.4
05/08:30am 20.0 19.8 19.8 99 0.1 N 20 24 11 13 1007.6 1007.5 10.4
05/08:00am 20.3 18.4 20.1 99 0.1 N 30 33 16 18 1007.4 1007.3 10.4
05/07:30am 20.1 18.8 19.9 99 0.1 NNE 26 30 14 16 1007.4 1007.3 10.4
05/07:00am 20.0 18.7 19.8 99 0.1 N 26 30 14 16 1007.2 1007.1 10.4
05/06:30am 19.8 17.6 19.6 99 0.1 N 30 35 16 19 1007.2 1007.1 10.4
05/06:00am 19.8 15.9 19.6 99 0.1 NNE 39 46 21 25 1007.0 1006.9 10.4
05/05:30am 19.8 15.2 19.6 99 0.1 NNE 43 50 23 27 1006.5 1006.4 10.4
05/05:00am 19.9 15.7 19.7 99 0.1 NNE 41 48 22 26 1006.8 1006.7 10.4
05/04:30am 19.8 13.8 19.5 98 0.2 NNE 50 57 27 31 1006.6 1006.5 9.6
05/04:14am 19.7 16.1 19.4 98 0.2 N 37 46 20 25 1008.3 1008.2 7.2
05/04:00am 19.5 18.7 19.2 98 0.2 N 22 28 12 15 1009.4 1009.3 6.4
05/03:30am 19.4 19.5 19.1 98 0.2 N 17 20 9 11 1008.6 1008.5 5.4
05/03:00am 19.4 19.5 19.1 98 0.2 N 17 20 9 11 1008.7 1008.6 5.2
05/02:30am 19.6 18.4 19.3 98 0.2 N 24 28 13 15 1009.0 1008.9 5.2
05/02:00am 19.7 18.2 19.4 98 0.2 N 26 30 14 16 1009.9 1009.8 4.4
05/01:30am 19.7 17.3 19.2 97 0.3 N 30 32 16 17 1009.9 1009.8 3.6
05/01:00am 20.0 17.8 19.5 97 0.3 N 30 39 16 21 1009.9 1009.8 3.0
05/12:30am 19.8 19.4 19.3 97 0.3 N 20 24 11 13 1010.3 1010.2 2.6
05/12:00am 19.6 19.0 18.9 96 0.4 N 20 22 11 12 1010.2 1010.1 2.4
 
Date/Time
EDT
Temp
°C
App
Temp
°C
Dew
Point
°C
Rel
Hum
%
Delta-T
°C
Wind Press
QNH
hPa
Press
MSL
hPa
Rain since
9am
mm
Dir  Spd
km/h
Gust
km/h
Spd
kts
Gust
kts
04/11:30pm 19.6 17.9 18.9 96 0.4 N 26 30 14 16 1010.5 1010.4 2.2
04/11:00pm 19.7 16.8 18.9 95 0.5 N 32 33 17 18 1010.8 1010.7 1.8
04/10:30pm 20.0 17.2 19.0 94 0.6 N 32 35 17 19 1011.2 1011.1 0.8
04/10:00pm 20.3 16.2 19.1 93 0.8 NNE 39 43 21 23 1010.9 1010.8 0.2
04/09:30pm 20.5 16.5 19.3 93 0.8 NNE 39 43 21 23 1010.8 1010.7 0.2
04/09:00pm 20.6 17.0 19.3 92 0.8 NNE 37 43 20 23 1010.3 1010.2 0.2
04/08:30pm 20.7 15.7 19.2 91 0.9 N 44 50 24 27 1010.1 1010.0 0.2
04/08:00pm 20.7 15.8 19.0 90 1.1 NNE 43 48 23 26 1010.0 1009.9 0.2
04/07:30pm 20.8 17.1 19.1 90 1.1 NNE 37 43 20 23 1010.1 1010.0 0.2
04/07:00pm 21.0 17.6 19.1 89 1.2 NNE 35 37 19 20 1010.4 1010.3 0.2
04/06:30pm 21.3 18.5 19.0 87 1.5 NNE 32 33 17 18 1010.6 1010.5 0.2
04/06:00pm 21.7 19.0 19.3 86 1.5 NNE 32 37 17 20 1010.5 1010.4 0.2
04/05:30pm 21.5 18.7 19.1 86 1.5 NNE 32 35 17 19 1010.4 1010.3 0.2
04/05:00pm 21.7 18.6 18.9 84 1.8 NNE 33 37 18 20 1010.7 1010.6 0.2
04/04:30pm 22.1 18.9 18.7 81 2.1 NNE 33 37 18 20 1011.0 1010.9 0.2
04/04:00pm 22.5 19.2 19.3 82 2.0 NNE 35 39 19 21 1011.3 1011.2 0.2
04/03:30pm 22.5 19.3 18.7 79 2.4 NNE 33 37 18 20 1011.5 1011.4 0.2
04/03:00pm 23.4 20.8 19.5 79 2.5 NNE 32 35 17 19 1011.6 1011.5 0.2
04/02:30pm 22.7 19.7 19.1 80 2.3 N 33 35 18 19 1012.0 1011.9 0.2
04/02:00pm 22.9 20.2 19.3 80 2.3 NNE 32 35 17 19 1011.9 1011.8 0.2
04/01:30pm 23.5 20.8 19.6 79 2.5 NNE 33 37 18 20 1012.2 1012.1 0.2
04/01:00pm 23.0 20.1 19.2 79 2.4 NNE 33 35 18 19 1012.7 1012.7 0.2
04/12:30pm 23.1 20.2 19.3 79 2.4 NNE 33 37 18 20 1012.9 1012.9 0.2
04/12:00pm 22.8 20.4 19.0 79 2.4 N 30 33 16 18 1013.3 1013.3 0.2
04/11:30am 22.0 18.8 18.2 79 2.4 N 32 35 17 19 1013.4 1013.4 0.2
04/11:00am 21.7 18.4 17.9 79 2.4 N 32 35 17 19 1013.8 1013.8 0.0
04/10:30am 21.2 18.1 17.4 79 2.3 N 30 33 16 18 1013.9 1013.9 0.0
04/10:00am 21.0 18.0 17.8 82 2.0 NNE 30 32 16 17 1014.3 1014.3 0.0
04/09:30am 20.3 17.0 16.9 81 2.1 N 30 33 16 18 1014.4 1014.4 0.0
04/09:00am 20.6 18.3 17.6 83 1.8 N 26 30 14 16 1014.7 1014.7 0.0
04/08:30am 20.5 19.6 18.1 86 1.5 N 20 24 11 13 1015.0 1015.0 0.0
04/08:00am 19.7 19.4 18.2 91 0.9 NNE 17 20 9 11 1014.9 1014.9 0.0
04/07:30am 18.9 18.8 17.9 94 0.6 N 15 19 8 10 1015.5 1015.5 0.0
04/07:00am 18.0 17.6 17.2 95 0.5 N 15 19 8 10 1015.3 1015.3 0.0
04/06:30am 17.2 16.1 16.4 95 0.5 N 17 19 9 10 1015.1 1015.1 0.0
04/06:00am 16.7 17.0 15.9 95 0.5 NNW 9 15 5 8 1014.9 1014.9 0.0
04/05:30am 16.7 16.9 15.7 94 0.6 N 9 13 5 7 1014.7 1014.7 0.0
04/05:00am 16.9 16.8 15.9 94 0.6 N 11 15 6 8 1014.6 1014.6 0.0
04/04:30am 17.0 17.7 16.0 94 0.6 N 7 11 4 6 1015.0 1015.0 0.0
04/04:00am 17.2 17.6 16.2 94 0.6 N 9 11 5 6 1015.0 1015.0 0.0
04/03:30am 17.2 17.9 16.2 94 0.6 N 7 11 4 6 1015.2 1015.2 0.0
04/03:00am 17.2 17.6 16.2 94 0.6 N 9 11 5 6 1015.2 1015.2 0.0
04/02:30am 17.3 18.1 16.3 94 0.6 N 7 11 4 6 1015.6 1015.6 0.0
04/02:00am 17.6 18.5 16.5 93 0.7 N 7 9 4 5 1016.1 1016.1 0.0
04/01:30am 17.5 18.5 16.4 93 0.7 NNW 6 9 3 5 1016.2 1016.2 0.0
04/01:00am 17.2 18.0 15.9 92 0.8 W 6 6 3 3 1016.6 1016.6 0.0
04/12:30am 17.4 19.4 15.9 91 0.9 CALM 0 0 0 0 1016.6 1016.6 0.0
04/12:00am 17.2 19.1 15.7 91 0.9 CALM 0 0 0 0 1016.7 1016.7 0.0
 
Date/Time
EDT
Temp
°C
App
Temp
°C
Dew
Point
°C
Rel
Hum
%
Delta-T
°C
Wind Press
QNH
hPa
Press
MSL
hPa
Rain since
9am
mm
Dir  Spd
km/h
Gust
km/h
Spd
kts
Gust
kts
03/11:30pm 17.1 18.5 15.4 90 1.0 WNW 2 4 1 2 1016.8 1016.8 0.0
03/11:00pm 17.2 17.9 15.5 90 1.0 W 6 6 3 3 1017.0 1017.0 0.0
03/10:30pm 17.3 18.0 15.5 89 1.1 W 6 7 3 4 1017.1 1017.1 0.0
03/10:00pm 17.2 17.8 15.4 89 1.0 W 6 9 3 5 1017.1 1017.1 0.0
03/09:30pm 17.3 17.3 15.3 88 1.2 W 9 11 5 6 1017.1 1017.1 0.0

Other Formats:

Comma delimited format used in spreadsheet applications
http://www.bom.gov.au/fwo/IDN60801/IDN60801.94934.axf

JavaScript Object Notation format (JSON) in row-major order
http://www.bom.gov.au/fwo/IDN60801/IDN60801.94934.json